sensor_id;sensor_type;location;lat;lon;timestamp;P1;durP1;ratioP1;P2;durP2;ratioP2
55220;SDS011;41089;51.448;6.604;2023-06-14T00:04:55;10.23;;;6.55;;
55220;SDS011;41089;51.448;6.604;2023-06-14T00:10:56;13.32;;;7.43;;
55220;SDS011;41089;51.448;6.604;2023-06-14T00:16:57;16.37;;;8.17;;
55220;SDS011;41089;51.448;6.604;2023-06-14T00:22:59;14.75;;;7.28;;
55220;SDS011;41089;51.448;6.604;2023-06-14T00:28:59;13.02;;;7.00;;
55220;SDS011;41089;51.448;6.604;2023-06-14T00:35:00;13.67;;;7.30;;
55220;SDS011;41089;51.448;6.604;2023-06-14T00:41:00;11.40;;;6.50;;
55220;SDS011;41089;51.448;6.604;2023-06-14T00:47:00;6.93;;;5.10;;
55220;SDS011;41089;51.448;6.604;2023-06-14T00:53:02;7.30;;;5.18;;
55220;SDS011;41089;51.448;6.604;2023-06-14T00:59:03;6.70;;;5.00;;
55220;SDS011;41089;51.448;6.604;2023-06-14T01:05:03;9.02;;;5.43;;
55220;SDS011;41089;51.448;6.604;2023-06-14T01:11:08;6.32;;;5.13;;
55220;SDS011;41089;51.448;6.604;2023-06-14T01:17:12;8.60;;;4.72;;
55220;SDS011;41089;51.448;6.604;2023-06-14T01:23:17;5.07;;;4.57;;
55220;SDS011;41089;51.448;6.604;2023-06-14T01:29:18;8.00;;;5.25;;
55220;SDS011;41089;51.448;6.604;2023-06-14T01:35:19;6.32;;;5.28;;
55220;SDS011;41089;51.448;6.604;2023-06-14T01:41:19;7.35;;;4.78;;
55220;SDS011;41089;51.448;6.604;2023-06-14T01:47:21;5.90;;;5.22;;
55220;SDS011;41089;51.448;6.604;2023-06-14T01:53:21;6.30;;;4.70;;
55220;SDS011;41089;51.448;6.604;2023-06-14T01:59:22;6.88;;;4.95;;
55220;SDS011;41089;51.448;6.604;2023-06-14T02:05:23;6.25;;;4.55;;
55220;SDS011;41089;51.448;6.604;2023-06-14T02:11:24;6.13;;;4.60;;
55220;SDS011;41089;51.448;6.604;2023-06-14T02:17:25;8.00;;;4.57;;
55220;SDS011;41089;51.448;6.604;2023-06-14T02:23:27;7.27;;;4.90;;
55220;SDS011;41089;51.448;6.604;2023-06-14T02:29:27;6.32;;;4.32;;
55220;SDS011;41089;51.448;6.604;2023-06-14T02:35:29;8.10;;;4.75;;
55220;SDS011;41089;51.448;6.604;2023-06-14T02:41:30;7.15;;;4.15;;
55220;SDS011;41089;51.448;6.604;2023-06-14T02:47:32;6.57;;;4.83;;
55220;SDS011;41089;51.448;6.604;2023-06-14T02:53:33;6.35;;;4.68;;
55220;SDS011;41089;51.448;6.604;2023-06-14T02:59:33;5.70;;;4.00;;
55220;SDS011;41089;51.448;6.604;2023-06-14T03:05:35;6.82;;;4.28;;
55220;SDS011;41089;51.448;6.604;2023-06-14T03:11:36;5.67;;;4.33;;
55220;SDS011;41089;51.448;6.604;2023-06-14T03:17:36;6.25;;;4.35;;
55220;SDS011;41089;51.448;6.604;2023-06-14T03:23:38;4.53;;;3.85;;
55220;SDS011;41089;51.448;6.604;2023-06-14T03:29:39;6.23;;;4.10;;
55220;SDS011;41089;51.448;6.604;2023-06-14T03:35:41;8.68;;;4.40;;
55220;SDS011;41089;51.448;6.604;2023-06-14T03:41:41;10.77;;;4.30;;
55220;SDS011;41089;51.448;6.604;2023-06-14T03:47:41;4.78;;;4.22;;
55220;SDS011;41089;51.448;6.604;2023-06-14T03:53:42;6.57;;;4.80;;
55220;SDS011;41089;51.448;6.604;2023-06-14T03:59:42;6.32;;;4.00;;
55220;SDS011;41089;51.448;6.604;2023-06-14T04:05:43;6.50;;;4.10;;
55220;SDS011;41089;51.448;6.604;2023-06-14T04:11:44;7.95;;;3.90;;
55220;SDS011;41089;51.448;6.604;2023-06-14T04:17:45;6.40;;;3.90;;
55220;SDS011;41089;51.448;6.604;2023-06-14T04:23:45;7.70;;;3.65;;
55220;SDS011;41089;51.448;6.604;2023-06-14T04:29:46;5.88;;;3.70;;
55220;SDS011;41089;51.448;6.604;2023-06-14T04:35:49;6.78;;;4.00;;
55220;SDS011;41089;51.448;6.604;2023-06-14T04:41:53;7.78;;;3.95;;
55220;SDS011;41089;51.448;6.604;2023-06-14T04:47:58;5.93;;;3.92;;
55220;SDS011;41089;51.448;6.604;2023-06-14T04:53:59;5.95;;;3.88;;
55220;SDS011;41089;51.448;6.604;2023-06-14T05:00:01;7.28;;;3.53;;
55220;SDS011;41089;51.448;6.604;2023-06-14T05:06:04;11.57;;;3.85;;
55220;SDS011;41089;51.448;6.604;2023-06-14T05:12:04;9.13;;;3.85;;
55220;SDS011;41089;51.448;6.604;2023-06-14T05:18:08;9.02;;;3.72;;
55220;SDS011;41089;51.448;6.604;2023-06-14T05:24:09;5.93;;;4.00;;
55220;SDS011;41089;51.448;6.604;2023-06-14T05:30:11;9.52;;;3.50;;
55220;SDS011;41089;51.448;6.604;2023-06-14T05:36:12;8.27;;;3.38;;
55220;SDS011;41089;51.448;6.604;2023-06-14T05:42:12;5.87;;;3.73;;
55220;SDS011;41089;51.448;6.604;2023-06-14T05:48:13;7.78;;;4.03;;
55220;SDS011;41089;51.448;6.604;2023-06-14T05:54:14;6.27;;;3.60;;
55220;SDS011;41089;51.448;6.604;2023-06-14T06:00:15;10.10;;;3.88;;
55220;SDS011;41089;51.448;6.604;2023-06-14T06:06:16;9.48;;;3.85;;
55220;SDS011;41089;51.448;6.604;2023-06-14T06:12:17;12.88;;;3.95;;
55220;SDS011;41089;51.448;6.604;2023-06-14T06:18:17;10.07;;;4.93;;
55220;SDS011;41089;51.448;6.604;2023-06-14T06:24:18;7.93;;;4.00;;
55220;SDS011;41089;51.448;6.604;2023-06-14T06:30:19;5.22;;;3.58;;
55220;SDS011;41089;51.448;6.604;2023-06-14T06:36:20;9.50;;;3.85;;
55220;SDS011;41089;51.448;6.604;2023-06-14T06:42:22;6.75;;;3.47;;
55220;SDS011;41089;51.448;6.604;2023-06-14T06:48:22;8.60;;;3.45;;
55220;SDS011;41089;51.448;6.604;2023-06-14T06:54:26;8.15;;;3.13;;
55220;SDS011;41089;51.448;6.604;2023-06-14T07:00:28;8.68;;;3.40;;
55220;SDS011;41089;51.448;6.604;2023-06-14T07:06:28;9.48;;;3.13;;
55220;SDS011;41089;51.448;6.604;2023-06-14T07:12:33;5.55;;;2.75;;
55220;SDS011;41089;51.448;6.604;2023-06-14T07:18:36;6.97;;;2.25;;
55220;SDS011;41089;51.448;6.604;2023-06-14T07:24:37;2.30;;;2.10;;
55220;SDS011;41089;51.448;6.604;2023-06-14T07:30:37;6.63;;;2.40;;
55220;SDS011;41089;51.448;6.604;2023-06-14T07:36:38;5.43;;;2.03;;
55220;SDS011;41089;51.448;6.604;2023-06-14T07:42:38;3.30;;;2.00;;
55220;SDS011;41089;51.448;6.604;2023-06-14T07:48:39;7.78;;;2.42;;
55220;SDS011;41089;51.448;6.604;2023-06-14T07:54:39;3.87;;;2.07;;
55220;SDS011;41089;51.448;6.604;2023-06-14T08:00:41;3.63;;;2.35;;
55220;SDS011;41089;51.448;6.604;2023-06-14T08:06:41;2.83;;;2.13;;
55220;SDS011;41089;51.448;6.604;2023-06-14T08:12:44;4.22;;;2.53;;
55220;SDS011;41089;51.448;6.604;2023-06-14T08:18:44;6.68;;;2.20;;
55220;SDS011;41089;51.448;6.604;2023-06-14T08:24:45;6.78;;;2.47;;
55220;SDS011;41089;51.448;6.604;2023-06-14T08:30:45;9.10;;;2.20;;
55220;SDS011;41089;51.448;6.604;2023-06-14T08:36:45;5.03;;;2.47;;
55220;SDS011;41089;51.448;6.604;2023-06-14T08:42:47;7.15;;;2.88;;
55220;SDS011;41089;51.448;6.604;2023-06-14T08:48:54;5.03;;;2.53;;
55220;SDS011;41089;51.448;6.604;2023-06-14T08:54:57;7.93;;;2.83;;
55220;SDS011;41089;51.448;6.604;2023-06-14T09:00:57;5.00;;;2.58;;
55220;SDS011;41089;51.448;6.604;2023-06-14T09:06:58;4.00;;;2.40;;
55220;SDS011;41089;51.448;6.604;2023-06-14T09:13:00;5.65;;;2.40;;
55220;SDS011;41089;51.448;6.604;2023-06-14T09:19:01;2.85;;;1.90;;
55220;SDS011;41089;51.448;6.604;2023-06-14T09:25:02;6.40;;;2.50;;
55220;SDS011;41089;51.448;6.604;2023-06-14T09:31:10;2.28;;;2.03;;
55220;SDS011;41089;51.448;6.604;2023-06-14T09:37:11;5.57;;;2.90;;
55220;SDS011;41089;51.448;6.604;2023-06-14T09:43:12;2.63;;;2.30;;
55220;SDS011;41089;51.448;6.604;2023-06-14T09:49:12;5.38;;;2.10;;
55220;SDS011;41089;51.448;6.604;2023-06-14T09:55:13;4.60;;;2.45;;
55220;SDS011;41089;51.448;6.604;2023-06-14T10:01:13;7.43;;;2.10;;
55220;SDS011;41089;51.448;6.604;2023-06-14T10:07:15;3.58;;;1.83;;
55220;SDS011;41089;51.448;6.604;2023-06-14T10:13:19;3.58;;;2.10;;
55220;SDS011;41089;51.448;6.604;2023-06-14T10:19:21;2.25;;;1.75;;
55220;SDS011;41089;51.448;6.604;2023-06-14T10:25:26;4.53;;;1.30;;
55220;SDS011;41089;51.448;6.604;2023-06-14T10:38:06;2.40;;;1.80;;
55220;SDS011;41089;51.448;6.604;2023-06-14T10:50:14;4.82;;;1.70;;
55220;SDS011;41089;51.448;6.604;2023-06-14T10:56:29;4.18;;;1.60;;
55220;SDS011;41089;51.448;6.604;2023-06-14T11:09:20;3.72;;;1.30;;
55220;SDS011;41089;51.448;6.604;2023-06-14T11:15:32;4.93;;;1.42;;
55220;SDS011;41089;51.448;6.604;2023-06-14T11:21:36;2.88;;;1.25;;
55220;SDS011;41089;51.448;6.604;2023-06-14T11:27:43;2.50;;;1.60;;
55220;SDS011;41089;51.448;6.604;2023-06-14T11:33:48;4.60;;;1.60;;
55220;SDS011;41089;51.448;6.604;2023-06-14T11:39:49;4.82;;;1.60;;
55220;SDS011;41089;51.448;6.604;2023-06-14T11:45:50;7.03;;;1.30;;
55220;SDS011;41089;51.448;6.604;2023-06-14T11:51:51;2.40;;;1.25;;
55220;SDS011;41089;51.448;6.604;2023-06-14T11:57:56;1.80;;;1.35;;
55220;SDS011;41089;51.448;6.604;2023-06-14T12:03:56;6.15;;;1.40;;
55220;SDS011;41089;51.448;6.604;2023-06-14T12:15:57;5.00;;;1.50;;
55220;SDS011;41089;51.448;6.604;2023-06-14T12:22:01;5.05;;;1.58;;
55220;SDS011;41089;51.448;6.604;2023-06-14T12:28:06;3.35;;;1.55;;
55220;SDS011;41089;51.448;6.604;2023-06-14T12:34:07;4.68;;;1.45;;
55220;SDS011;41089;51.448;6.604;2023-06-14T12:40:08;4.03;;;1.63;;
55220;SDS011;41089;51.448;6.604;2023-06-14T12:46:08;3.58;;;1.52;;
55220;SDS011;41089;51.448;6.604;2023-06-14T12:52:09;2.72;;;1.70;;
55220;SDS011;41089;51.448;6.604;2023-06-14T12:58:10;2.50;;;1.52;;
55220;SDS011;41089;51.448;6.604;2023-06-14T13:04:12;2.33;;;1.48;;
55220;SDS011;41089;51.448;6.604;2023-06-14T13:10:13;1.95;;;1.70;;
55220;SDS011;41089;51.448;6.604;2023-06-14T13:16:13;1.87;;;1.60;;
55220;SDS011;41089;51.448;6.604;2023-06-14T13:22:14;3.53;;;1.77;;
55220;SDS011;41089;51.448;6.604;2023-06-14T13:28:14;6.10;;;2.05;;
55220;SDS011;41089;51.448;6.604;2023-06-14T13:34:15;2.28;;;2.10;;
55220;SDS011;41089;51.448;6.604;2023-06-14T13:40:15;2.67;;;2.07;;
55220;SDS011;41089;51.448;6.604;2023-06-14T13:46:16;2.75;;;2.35;;
55220;SDS011;41089;51.448;6.604;2023-06-14T13:52:16;7.73;;;2.27;;
55220;SDS011;41089;51.448;6.604;2023-06-14T13:58:16;3.73;;;2.23;;
55220;SDS011;41089;51.448;6.604;2023-06-14T14:04:17;5.88;;;2.30;;
55220;SDS011;41089;51.448;6.604;2023-06-14T14:10:18;4.10;;;2.10;;
55220;SDS011;41089;51.448;6.604;2023-06-14T14:16:21;5.03;;;2.20;;
55220;SDS011;41089;51.448;6.604;2023-06-14T14:22:21;6.03;;;2.80;;
55220;SDS011;41089;51.448;6.604;2023-06-14T14:28:23;3.47;;;2.20;;
55220;SDS011;41089;51.448;6.604;2023-06-14T14:34:26;5.43;;;2.35;;
55220;SDS011;41089;51.448;6.604;2023-06-14T14:40:27;2.25;;;1.98;;
55220;SDS011;41089;51.448;6.604;2023-06-14T14:46:27;2.90;;;2.30;;
55220;SDS011;41089;51.448;6.604;2023-06-14T14:52:28;5.97;;;2.47;;
55220;SDS011;41089;51.448;6.604;2023-06-14T14:58:28;2.23;;;2.00;;
55220;SDS011;41089;51.448;6.604;2023-06-14T15:04:29;3.67;;;1.90;;
55220;SDS011;41089;51.448;6.604;2023-06-14T15:10:30;5.10;;;2.38;;
55220;SDS011;41089;51.448;6.604;2023-06-14T15:16:30;3.45;;;2.35;;
55220;SDS011;41089;51.448;6.604;2023-06-14T15:22:31;4.93;;;2.17;;
55220;SDS011;41089;51.448;6.604;2023-06-14T15:28:31;4.53;;;2.05;;
55220;SDS011;41089;51.448;6.604;2023-06-14T15:34:32;5.45;;;2.42;;
55220;SDS011;41089;51.448;6.604;2023-06-14T15:40:33;4.77;;;2.30;;
55220;SDS011;41089;51.448;6.604;2023-06-14T15:46:34;3.25;;;2.17;;
55220;SDS011;41089;51.448;6.604;2023-06-14T15:52:35;3.53;;;2.35;;
55220;SDS011;41089;51.448;6.604;2023-06-14T15:58:35;3.30;;;2.42;;
55220;SDS011;41089;51.448;6.604;2023-06-14T16:04:36;4.23;;;2.73;;
55220;SDS011;41089;51.448;6.604;2023-06-14T16:10:37;2.47;;;2.10;;
55220;SDS011;41089;51.448;6.604;2023-06-14T16:16:37;3.75;;;2.38;;
55220;SDS011;41089;51.448;6.604;2023-06-14T16:22:38;5.05;;;2.72;;
55220;SDS011;41089;51.448;6.604;2023-06-14T16:28:38;2.53;;;2.00;;
55220;SDS011;41089;51.448;6.604;2023-06-14T16:34:48;5.30;;;2.40;;
55220;SDS011;41089;51.448;6.604;2023-06-14T16:40:48;4.82;;;2.10;;
55220;SDS011;41089;51.448;6.604;2023-06-14T16:46:49;4.78;;;2.78;;
55220;SDS011;41089;51.448;6.604;2023-06-14T16:52:49;2.95;;;2.58;;
55220;SDS011;41089;51.448;6.604;2023-06-14T16:58:51;3.47;;;2.63;;
55220;SDS011;41089;51.448;6.604;2023-06-14T17:04:53;5.07;;;2.20;;
55220;SDS011;41089;51.448;6.604;2023-06-14T17:10:55;2.70;;;2.50;;
55220;SDS011;41089;51.448;6.604;2023-06-14T17:16:57;2.55;;;2.35;;
55220;SDS011;41089;51.448;6.604;2023-06-14T17:22:57;5.03;;;2.10;;
55220;SDS011;41089;51.448;6.604;2023-06-14T17:28:58;7.53;;;2.40;;
55220;SDS011;41089;51.448;6.604;2023-06-14T17:34:58;5.07;;;2.50;;
55220;SDS011;41089;51.448;6.604;2023-06-14T17:41:00;2.95;;;2.47;;
55220;SDS011;41089;51.448;6.604;2023-06-14T17:47:00;4.97;;;2.70;;
55220;SDS011;41089;51.448;6.604;2023-06-14T17:53:01;3.35;;;2.30;;
55220;SDS011;41089;51.448;6.604;2023-06-14T17:59:03;4.55;;;2.60;;
55220;SDS011;41089;51.448;6.604;2023-06-14T18:05:04;4.50;;;2.10;;
55220;SDS011;41089;51.448;6.604;2023-06-14T18:11:04;4.57;;;2.60;;
55220;SDS011;41089;51.448;6.604;2023-06-14T18:17:05;5.60;;;2.53;;
55220;SDS011;41089;51.448;6.604;2023-06-14T18:23:05;3.10;;;2.40;;
55220;SDS011;41089;51.448;6.604;2023-06-14T18:29:06;2.60;;;2.30;;
55220;SDS011;41089;51.448;6.604;2023-06-14T18:35:06;4.53;;;2.80;;
55220;SDS011;41089;51.448;6.604;2023-06-14T18:41:07;3.17;;;2.53;;
55220;SDS011;41089;51.448;6.604;2023-06-14T18:47:07;2.63;;;2.00;;
55220;SDS011;41089;51.448;6.604;2023-06-14T18:53:10;2.80;;;2.20;;
55220;SDS011;41089;51.448;6.604;2023-06-14T18:59:10;5.05;;;2.30;;
55220;SDS011;41089;51.448;6.604;2023-06-14T19:05:11;2.97;;;2.58;;
55220;SDS011;41089;51.448;6.604;2023-06-14T19:11:11;6.45;;;2.58;;
55220;SDS011;41089;51.448;6.604;2023-06-14T19:17:12;2.53;;;1.92;;
55220;SDS011;41089;51.448;6.604;2023-06-14T19:23:12;5.87;;;2.40;;
55220;SDS011;41089;51.448;6.604;2023-06-14T19:29:13;2.50;;;2.30;;
55220;SDS011;41089;51.448;6.604;2023-06-14T19:35:13;3.33;;;2.30;;
55220;SDS011;41089;51.448;6.604;2023-06-14T19:41:15;4.95;;;2.33;;
55220;SDS011;41089;51.448;6.604;2023-06-14T19:47:16;4.85;;;2.20;;
55220;SDS011;41089;51.448;6.604;2023-06-14T20:00:13;3.53;;;2.22;;
55220;SDS011;41089;51.448;6.604;2023-06-14T20:06:15;4.15;;;2.00;;
55220;SDS011;41089;51.448;6.604;2023-06-14T20:12:19;3.60;;;2.00;;
55220;SDS011;41089;51.448;6.604;2023-06-14T20:18:21;3.42;;;2.10;;
55220;SDS011;41089;51.448;6.604;2023-06-14T20:24:25;3.25;;;2.15;;
55220;SDS011;41089;51.448;6.604;2023-06-14T20:30:25;4.35;;;2.50;;
55220;SDS011;41089;51.448;6.604;2023-06-14T20:36:26;2.13;;;1.92;;
55220;SDS011;41089;51.448;6.604;2023-06-14T20:42:30;6.88;;;2.30;;
55220;SDS011;41089;51.448;6.604;2023-06-14T20:48:30;2.05;;;1.85;;
55220;SDS011;41089;51.448;6.604;2023-06-14T20:54:31;2.38;;;2.17;;
55220;SDS011;41089;51.448;6.604;2023-06-14T21:00:32;2.65;;;2.35;;
55220;SDS011;41089;51.448;6.604;2023-06-14T21:06:33;2.38;;;2.17;;
55220;SDS011;41089;51.448;6.604;2023-06-14T21:12:38;2.97;;;2.25;;
55220;SDS011;41089;51.448;6.604;2023-06-14T21:18:40;3.88;;;2.10;;
55220;SDS011;41089;51.448;6.604;2023-06-14T21:24:40;4.40;;;2.63;;
55220;SDS011;41089;51.448;6.604;2023-06-14T21:30:41;4.95;;;2.55;;
55220;SDS011;41089;51.448;6.604;2023-06-14T21:36:41;4.22;;;2.42;;
55220;SDS011;41089;51.448;6.604;2023-06-14T21:42:42;4.32;;;2.30;;
55220;SDS011;41089;51.448;6.604;2023-06-14T21:48:42;3.43;;;2.33;;
55220;SDS011;41089;51.448;6.604;2023-06-14T21:54:43;6.23;;;2.80;;
55220;SDS011;41089;51.448;6.604;2023-06-14T22:00:43;8.73;;;2.73;;
55220;SDS011;41089;51.448;6.604;2023-06-14T22:06:44;5.35;;;2.95;;
55220;SDS011;41089;51.448;6.604;2023-06-14T22:12:46;3.13;;;2.38;;
55220;SDS011;41089;51.448;6.604;2023-06-14T22:18:48;6.25;;;2.50;;
55220;SDS011;41089;51.448;6.604;2023-06-14T22:24:50;3.58;;;2.53;;
55220;SDS011;41089;51.448;6.604;2023-06-14T22:30:51;4.57;;;3.10;;
55220;SDS011;41089;51.448;6.604;2023-06-14T22:36:57;6.93;;;3.17;;
55220;SDS011;41089;51.448;6.604;2023-06-14T22:43:04;2.92;;;2.63;;
55220;SDS011;41089;51.448;6.604;2023-06-14T22:49:05;3.42;;;2.47;;
55220;SDS011;41089;51.448;6.604;2023-06-14T22:55:06;5.88;;;3.20;;
55220;SDS011;41089;51.448;6.604;2023-06-14T23:01:08;3.40;;;2.58;;
55220;SDS011;41089;51.448;6.604;2023-06-14T23:07:14;5.15;;;3.17;;
55220;SDS011;41089;51.448;6.604;2023-06-14T23:13:14;4.07;;;2.90;;
55220;SDS011;41089;51.448;6.604;2023-06-14T23:19:16;6.43;;;2.40;;
55220;SDS011;41089;51.448;6.604;2023-06-14T23:25:17;4.80;;;2.70;;
55220;SDS011;41089;51.448;6.604;2023-06-14T23:31:18;7.05;;;3.20;;
55220;SDS011;41089;51.448;6.604;2023-06-14T23:37:20;4.28;;;2.97;;
55220;SDS011;41089;51.448;6.604;2023-06-14T23:43:20;3.53;;;3.22;;
55220;SDS011;41089;51.448;6.604;2023-06-14T23:49:21;9.85;;;3.53;;
55220;SDS011;41089;51.448;6.604;2023-06-14T23:55:27;5.85;;;3.35;;
